createdAt,value
2022-11-23T00:00:09.536Z,7.00
2022-11-23T00:02:36.933Z,7.10
2022-11-23T00:05:05.295Z,7.10
2022-11-23T00:07:32.931Z,7.10
2022-11-23T00:10:00.288Z,6.80
2022-11-23T00:18:25.027Z,6.70
2022-11-23T00:20:52.987Z,6.70
2022-11-23T00:23:21.459Z,6.70
2022-11-23T00:25:48.636Z,6.80
2022-11-23T00:28:16.062Z,6.60
2022-11-23T00:30:43.738Z,6.60
2022-11-23T00:33:12.008Z,6.80
2022-11-23T00:40:46.126Z,6.80
2022-11-23T00:43:13.419Z,6.60
2022-11-23T00:45:40.633Z,6.60
2022-11-23T00:48:08.298Z,6.80
2022-11-23T00:50:35.508Z,6.70
2022-11-23T00:53:02.994Z,6.90
2022-11-23T00:55:30.278Z,7.00
2022-11-23T00:58:00.384Z,6.90
2022-11-23T01:05:40.138Z,7.00
2022-11-23T01:08:08.206Z,6.90
2022-11-23T01:10:36.056Z,6.80
2022-11-23T01:13:03.308Z,7.00
2022-11-23T01:15:30.527Z,6.90
2022-11-23T01:17:58.154Z,7.00
2022-11-23T01:20:26.219Z,7.10
2022-11-23T01:28:04.148Z,7.20
2022-11-23T01:30:33.797Z,7.00
2022-11-23T01:33:01.017Z,6.90
2022-11-23T01:35:28.886Z,7.00
2022-11-23T01:37:56.987Z,7.20
2022-11-23T01:40:24.397Z,7.30
2022-11-23T01:42:55.677Z,7.40
2022-11-23T01:48:12.748Z,7.50
2022-11-23T01:50:40.335Z,7.40
2022-11-23T01:53:07.878Z,7.30
2022-11-23T01:55:35.886Z,7.30
2022-11-23T01:58:05.053Z,7.30
2022-11-23T02:00:32.469Z,7.20
2022-11-23T02:03:01.145Z,7.30
2022-11-23T02:08:24.008Z,7.30
2022-11-23T02:10:53.106Z,7.30
2022-11-23T02:13:20.466Z,7.40
2022-11-23T02:15:47.796Z,7.60
2022-11-23T02:18:18.768Z,7.60
2022-11-23T02:20:47.288Z,7.70
2022-11-23T02:23:27.406Z,7.60
2022-11-23T02:31:02.978Z,7.60
2022-11-23T02:33:30.466Z,7.70
2022-11-23T02:35:59.837Z,7.70
2022-11-23T02:38:30.636Z,7.70
2022-11-23T02:40:58.807Z,7.70
2022-11-23T02:43:26.370Z,7.80
2022-11-23T02:45:56.165Z,7.90
2022-11-23T02:48:25.038Z,8.00
2022-11-23T02:56:12.661Z,7.70
2022-11-23T02:58:39.878Z,7.50
2022-11-23T03:01:08.437Z,7.50
2022-11-23T03:03:36.196Z,7.60
2022-11-23T03:06:03.636Z,7.80
2022-11-23T03:08:31.298Z,7.70
2022-11-23T03:11:01.210Z,7.50
2022-11-23T03:13:29.709Z,7.50
2022-11-23T03:15:57.849Z,7.60
2022-11-23T03:23:29.819Z,7.60
2022-11-23T03:25:57.977Z,7.60
2022-11-23T03:28:27.436Z,7.70
2022-11-23T03:30:55.329Z,7.70
2022-11-23T03:33:22.759Z,7.80
2022-11-23T03:35:50.716Z,7.80
2022-11-23T03:38:18.019Z,7.90
2022-11-23T03:40:46.563Z,7.80
2022-11-23T03:48:14.757Z,7.80
2022-11-23T03:50:42.628Z,7.50
2022-11-23T03:53:10.002Z,7.50
2022-11-23T03:55:37.286Z,7.60
2022-11-23T03:58:04.588Z,7.70
2022-11-23T04:00:33.208Z,7.70
2022-11-23T04:03:00.509Z,7.60
2022-11-23T04:05:29.887Z,7.80
2022-11-23T04:07:57.779Z,7.60
2022-11-23T04:15:30.780Z,7.90
2022-11-23T04:17:58.126Z,7.80
2022-11-23T04:20:25.928Z,7.70
2022-11-23T04:22:53.759Z,7.70
2022-11-23T04:25:21.077Z,7.50
2022-11-23T04:27:48.356Z,7.50
2022-11-23T04:30:16.260Z,7.70
2022-11-23T04:38:34.930Z,7.90
2022-11-23T04:41:02.186Z,8.00
2022-11-23T04:43:31.114Z,8.10
2022-11-23T04:45:58.480Z,8.10
2022-11-23T04:48:26.379Z,8.00
2022-11-23T04:50:55.843Z,8.10
2022-11-23T04:53:23.326Z,8.10
2022-11-23T04:55:51.905Z,8.00
2022-11-23T05:03:22.286Z,7.90
2022-11-23T05:05:49.767Z,7.90
2022-11-23T05:08:17.526Z,7.90
2022-11-23T05:10:44.910Z,7.90
2022-11-23T05:13:12.608Z,7.90
2022-11-23T05:15:40.135Z,7.70
2022-11-23T05:18:08.199Z,7.80
2022-11-23T05:26:29.487Z,7.70
2022-11-23T05:28:57.015Z,7.70
2022-11-23T05:31:24.893Z,7.70
2022-11-23T05:33:52.285Z,7.70
2022-11-23T05:36:20.567Z,7.80
2022-11-23T05:38:51.067Z,7.70
2022-11-23T05:41:18.516Z,7.70
2022-11-23T05:43:47.745Z,7.70
2022-11-23T05:51:15.627Z,7.70
2022-11-23T05:53:43.035Z,7.80
2022-11-23T05:56:10.609Z,7.60
2022-11-23T05:58:38.695Z,7.70
2022-11-23T06:01:06.698Z,7.60
2022-11-23T06:03:34.239Z,7.10
2022-11-23T06:06:01.820Z,7.00
2022-11-23T06:08:30.455Z,7.10
2022-11-23T06:16:02.665Z,6.90
2022-11-23T06:18:30.305Z,6.60
2022-11-23T06:21:01.650Z,6.80
2022-11-23T06:23:28.987Z,6.90
2022-11-23T06:25:59.626Z,7.10
2022-11-23T06:28:28.505Z,7.10
2022-11-23T06:30:56.466Z,7.20
2022-11-23T06:38:28.685Z,6.90
2022-11-23T06:40:59.046Z,7.20
2022-11-23T06:43:27.076Z,7.40
2022-11-23T06:45:55.558Z,7.40
2022-11-23T06:48:23.614Z,7.30
2022-11-23T06:50:50.808Z,7.20
2022-11-23T06:53:18.958Z,7.30
2022-11-23T07:01:09.659Z,7.10
2022-11-23T07:03:37.741Z,6.70
2022-11-23T07:06:06.986Z,6.90
2022-11-23T07:08:34.588Z,6.70
2022-11-23T07:11:02.368Z,7.00
2022-11-23T07:13:30.087Z,7.10
2022-11-23T07:15:59.159Z,7.20
2022-11-23T07:34:28.515Z,7.30
2022-11-23T07:37:01.705Z,7.00
2022-11-23T07:39:55.047Z,7.10
2022-11-23T07:42:32.259Z,7.10
2022-11-23T07:45:02.627Z,7.00
2022-11-23T07:47:30.781Z,7.00
2022-11-23T07:53:11.127Z,7.00
2022-11-23T07:55:38.986Z,6.90
2022-11-23T07:58:06.509Z,6.70
2022-11-23T08:00:33.689Z,6.80
2022-11-23T08:03:31.143Z,6.80
2022-11-23T08:05:49.257Z,6.90
2022-11-23T08:08:18.375Z,7.00
2022-11-23T08:26:38.624Z,7.30
2022-11-23T08:29:06.974Z,7.30
2022-11-23T08:31:34.659Z,7.30
2022-11-23T08:34:03.709Z,7.40
2022-11-23T08:36:31.598Z,7.40
2022-11-23T08:38:58.864Z,7.10
2022-11-23T08:41:26.789Z,6.90
2022-11-23T08:43:56.125Z,7.00
2022-11-23T08:53:44.147Z,7.30
2022-11-23T08:56:11.599Z,7.30
2022-11-23T08:58:38.974Z,7.40
2022-11-23T09:01:09.301Z,7.60
2022-11-23T09:03:36.688Z,7.70
2022-11-23T09:06:04.965Z,8.00
2022-11-23T09:08:32.616Z,8.00
2022-11-23T09:11:05.375Z,8.20
2022-11-23T09:18:39.696Z,8.10
2022-11-23T09:21:07.099Z,7.90
2022-11-23T09:23:34.786Z,7.70
2022-11-23T09:26:03.476Z,8.00
2022-11-23T09:28:32.136Z,8.10
2022-11-23T09:31:02.751Z,8.20
2022-11-23T09:33:30.950Z,8.00
2022-11-23T09:36:01.057Z,8.10
2022-11-23T09:44:07.977Z,8.30
2022-11-23T09:46:49.847Z,8.30
2022-11-23T09:49:22.199Z,8.40
2022-11-23T09:51:56.268Z,8.50
2022-11-23T09:54:28.939Z,8.60
2022-11-23T09:57:01.799Z,8.40
2022-11-23T09:59:49.498Z,8.30
2022-11-23T10:08:21.925Z,8.30
2022-11-23T10:10:57.435Z,8.70
2022-11-23T10:13:34.305Z,8.80
2022-11-23T10:16:19.556Z,8.70
2022-11-23T10:18:56.180Z,8.80
2022-11-23T10:21:35.166Z,8.60
2022-11-23T10:24:20.531Z,8.60
2022-11-23T10:32:35.727Z,8.80
2022-11-23T10:35:12.243Z,8.90
2022-11-23T10:37:40.600Z,8.90
2022-11-23T10:40:16.758Z,8.90
2022-11-23T10:42:47.758Z,8.70
2022-11-23T10:45:21.515Z,8.60
2022-11-23T10:47:55.869Z,8.80
2022-11-23T10:58:26.739Z,9.10
2022-11-23T11:01:01.024Z,9.50
2022-11-23T11:03:32.997Z,9.50
2022-11-23T11:06:10.518Z,9.50
2022-11-23T11:08:56.708Z,9.60
2022-11-23T11:11:26.869Z,9.60
2022-11-23T11:14:08.451Z,9.50
2022-11-23T11:32:10.950Z,9.70
2022-11-23T11:34:45.776Z,9.70
2022-11-23T11:37:26.196Z,10.20
2022-11-23T11:39:58.236Z,10.30
2022-11-23T11:42:35.086Z,9.90
2022-11-23T11:45:07.515Z,10.00
2022-11-23T11:47:41.518Z,10.00
2022-11-23T11:53:09.607Z,10.10
2022-11-23T11:55:49.036Z,10.10
2022-11-23T11:58:18.413Z,10.40
2022-11-23T12:00:48.929Z,10.70
2022-11-23T12:03:26.175Z,10.60
2022-11-23T12:05:56.287Z,10.50
2022-11-23T12:08:33.816Z,10.50
2022-11-23T12:17:17.365Z,10.40
2022-11-23T12:19:56.286Z,10.70
2022-11-23T12:22:40.447Z,11.00
2022-11-23T12:25:21.887Z,10.80
2022-11-23T12:28:05.902Z,10.60
2022-11-23T12:30:44.409Z,10.90
2022-11-23T12:33:37.830Z,11.00
2022-11-23T12:41:34.968Z,11.40
2022-11-23T12:44:37.154Z,10.30
2022-11-23T12:47:31.114Z,10.20
2022-11-23T12:50:11.262Z,10.30
2022-11-23T12:52:59.043Z,10.40
2022-11-23T12:55:35.224Z,10.20
2022-11-23T13:02:35.565Z,10.10
2022-11-23T13:21:09.122Z,9.90
2022-11-23T13:24:00.043Z,10.00
2022-11-23T13:27:32.117Z,9.90
2022-11-23T13:31:15.147Z,10.00
2022-11-23T13:44:33.186Z,9.50
2022-11-23T13:47:24.982Z,9.60
2022-11-23T13:50:12.641Z,9.50
2022-11-23T13:52:57.325Z,9.30
2022-11-23T13:55:37.106Z,9.20
2022-11-23T13:58:47.801Z,9.40
2022-11-23T14:07:36.107Z,9.30
2022-11-23T14:10:19.312Z,9.30
2022-11-23T14:12:59.783Z,9.20
2022-11-23T14:15:43.871Z,9.20
2022-11-23T14:18:39.673Z,9.00
2022-11-23T14:21:23.789Z,9.00
2022-11-23T14:30:12.680Z,8.90
2022-11-23T14:33:10.849Z,9.20
2022-11-23T14:36:01.535Z,9.10
2022-11-23T14:39:00.463Z,8.90
2022-11-23T14:41:38.333Z,8.70
2022-11-23T14:44:17.791Z,8.80
2022-11-23T15:02:44.670Z,9.10
2022-11-23T15:05:22.320Z,8.70
2022-11-23T15:07:55.031Z,8.70
2022-11-23T15:10:38.222Z,8.60
2022-11-23T15:13:19.425Z,8.50
2022-11-23T15:15:47.914Z,8.40
2022-11-23T15:18:28.455Z,8.40
2022-11-23T15:26:01.952Z,8.30
2022-11-23T15:28:33.882Z,8.40
2022-11-23T15:31:17.730Z,8.50
2022-11-23T15:33:52.642Z,8.30
2022-11-23T15:36:28.573Z,8.30
2022-11-23T15:38:58.462Z,8.20
2022-11-23T15:41:31.739Z,8.10
2022-11-23T15:49:06.763Z,8.30
2022-11-23T15:51:40.104Z,8.20
2022-11-23T15:54:17.786Z,8.30
2022-11-23T15:56:49.262Z,8.10
2022-11-23T15:59:41.222Z,8.20
2022-11-23T16:02:21.418Z,8.10
2022-11-23T16:05:08.016Z,7.80
2022-11-23T16:12:53.914Z,7.40
2022-11-23T16:15:43.810Z,7.40
2022-11-23T16:18:24.334Z,7.40
2022-11-23T16:20:59.867Z,7.40
2022-11-23T16:23:31.051Z,7.50
2022-11-23T16:26:06.451Z,7.20
2022-11-23T16:28:42.248Z,7.30
2022-11-23T16:33:54.554Z,7.40
2022-11-23T16:36:30.842Z,7.60
2022-11-23T16:39:05.950Z,7.80
2022-11-23T16:41:34.183Z,7.70
2022-11-23T16:44:03.095Z,7.70
2022-11-23T16:46:33.270Z,8.00
2022-11-23T16:49:02.885Z,8.30
2022-11-23T16:51:30.854Z,8.30
2022-11-23T17:01:55.433Z,8.50
2022-11-23T17:04:26.350Z,8.10
2022-11-23T17:06:54.007Z,8.20
2022-11-23T17:09:21.453Z,8.40
2022-11-23T17:11:50.316Z,8.40
2022-11-23T17:14:30.067Z,8.30
2022-11-23T17:17:01.680Z,7.90
2022-11-23T17:19:29.777Z,7.90
2022-11-23T17:37:30.664Z,8.00
2022-11-23T17:39:58.385Z,7.60
2022-11-23T17:42:26.232Z,7.70
2022-11-23T17:44:53.792Z,7.40
2022-11-23T17:47:28.285Z,7.40
2022-11-23T17:49:56.361Z,7.50
2022-11-23T17:52:25.214Z,7.60
2022-11-23T17:58:04.095Z,7.90
2022-11-23T18:00:33.410Z,8.20
2022-11-23T18:03:01.199Z,8.20
2022-11-23T18:05:29.610Z,8.30
2022-11-23T18:08:01.589Z,8.30
2022-11-23T18:10:30.219Z,8.20
2022-11-23T18:12:58.872Z,8.20
2022-11-23T18:20:34.315Z,8.30
2022-11-23T18:23:03.077Z,8.30
2022-11-23T18:25:31.130Z,8.40
2022-11-23T18:28:02.447Z,8.20
2022-11-23T18:30:33.700Z,8.40
2022-11-23T18:33:04.741Z,8.40
2022-11-23T18:35:38.098Z,8.30
2022-11-23T18:43:34.999Z,8.30
2022-11-23T18:46:06.846Z,8.30
2022-11-23T18:48:39.110Z,8.30
2022-11-23T18:51:11.117Z,8.10
2022-11-23T18:53:44.500Z,7.90
2022-11-23T18:56:12.570Z,7.80
2022-11-23T18:58:52.235Z,7.80
2022-11-23T19:07:28.363Z,7.90
2022-11-23T19:09:55.820Z,7.80
2022-11-23T19:12:26.830Z,7.70
2022-11-23T19:15:00.241Z,7.60
2022-11-23T19:17:29.813Z,7.70
2022-11-23T19:20:00.821Z,7.70
2022-11-23T19:22:29.392Z,7.70
2022-11-23T19:24:58.604Z,7.70
2022-11-23T19:34:56.970Z,7.70
2022-11-23T19:37:27.491Z,7.80
2022-11-23T19:39:57.865Z,7.80
2022-11-23T19:42:28.724Z,7.70
2022-11-23T19:44:57.101Z,7.70
2022-11-23T19:47:26.928Z,7.60
2022-11-23T19:49:59.321Z,7.70
2022-11-23T19:57:36.640Z,7.70
2022-11-23T20:00:09.773Z,7.70
2022-11-23T20:02:38.215Z,7.70
2022-11-23T20:05:09.664Z,7.60
2022-11-23T20:07:39.995Z,7.70
2022-11-23T20:10:12.799Z,7.80
2022-11-23T20:12:44.710Z,7.60
2022-11-23T20:15:19.098Z,7.60
2022-11-23T20:22:52.821Z,7.40
2022-11-23T20:25:21.060Z,7.70
2022-11-23T20:27:50.292Z,7.70
2022-11-23T20:30:21.988Z,7.70
2022-11-23T20:32:51.837Z,7.80
2022-11-23T20:35:19.779Z,8.00
2022-11-23T20:37:50.840Z,8.10
2022-11-23T20:45:46.349Z,7.80
2022-11-23T20:48:17.449Z,7.80
2022-11-23T20:50:46.019Z,7.80
2022-11-23T20:53:13.478Z,7.90
2022-11-23T20:55:42.050Z,8.00
2022-11-23T20:58:11.009Z,8.10
2022-11-23T21:00:39.548Z,8.00
2022-11-23T21:05:52.609Z,8.10
2022-11-23T21:08:30.268Z,7.70
2022-11-23T21:11:26.526Z,7.30
2022-11-23T21:14:06.427Z,7.00
2022-11-23T21:16:35.988Z,6.90
2022-11-23T21:19:06.280Z,6.90
2022-11-23T21:21:36.217Z,6.90
2022-11-23T21:31:50.428Z,6.70
2022-11-23T21:34:22.499Z,6.60
2022-11-23T21:36:50.206Z,6.70
2022-11-23T21:39:21.510Z,6.90
2022-11-23T21:41:50.936Z,6.80
2022-11-23T21:44:18.962Z,6.80
2022-11-23T21:46:46.690Z,6.90
2022-11-23T21:52:43.097Z,6.70
2022-11-23T21:55:11.180Z,6.60
2022-11-23T21:57:38.707Z,6.50
2022-11-23T22:00:07.568Z,6.50
2022-11-23T22:02:37.440Z,6.80
2022-11-23T22:05:06.077Z,7.00
2022-11-23T22:07:36.723Z,6.80
2022-11-23T22:10:05.678Z,6.90
2022-11-23T22:17:25.031Z,6.80
2022-11-23T22:19:52.710Z,7.00
2022-11-23T22:22:21.888Z,7.10
2022-11-23T22:24:49.312Z,7.10
2022-11-23T22:27:16.789Z,7.10
2022-11-23T22:29:44.327Z,7.10
2022-11-23T22:32:12.449Z,7.10
2022-11-23T22:38:07.669Z,7.20
2022-11-23T22:40:35.582Z,7.30
2022-11-23T22:43:02.823Z,7.20
2022-11-23T22:45:30.132Z,7.10
2022-11-23T22:47:58.758Z,7.30
2022-11-23T22:50:26.074Z,7.50
2022-11-23T22:52:53.380Z,7.20
2022-11-23T22:55:22.438Z,7.20
2022-11-23T23:02:55.657Z,7.40
2022-11-23T23:05:23.388Z,7.80
2022-11-23T23:07:51.114Z,7.80
2022-11-23T23:10:19.119Z,7.90
2022-11-23T23:12:46.989Z,7.70
2022-11-23T23:15:14.421Z,7.80
2022-11-23T23:17:42.049Z,7.70
2022-11-23T23:27:59.132Z,8.00
2022-11-23T23:30:27.194Z,8.20
2022-11-23T23:32:56.690Z,8.10
2022-11-23T23:35:24.279Z,8.00
2022-11-23T23:37:53.140Z,8.20
2022-11-23T23:40:20.419Z,8.20
2022-11-23T23:42:47.690Z,8.40
2022-11-23T23:45:16.437Z,8.40
2022-11-23T23:55:34.257Z,8.80
2022-11-23T23:58:01.520Z,8.70
